ニューヨーク/JFK の空港の天気 - METARとTAF

ジョン・F・ケネディ国際空港 ( KJFK / JFK ) - アメリカ ニューヨーク州ニューヨーク
飛行場実況気象(Metar)
観測時間06/19 11:51 EDT (06/19 15:51 UTC)
風向・風速北 7m/s
視程10km以上
天気現象
少しの雲 雲底高度 980m
全天の4割程度の雲 雲底高度 1830m
全天の8割程度の雲 雲底高度 8230m
気温28.3℃
湿度63%
気圧1009.2hPa
METARKJFK 191551Z 36013KT 10SM FEW032 SCT060 BKN270 28/21 A2980 RMK AO2 SLP092 T02830206
過去の天気等 Google飛行場航空写真 Wunderground天気予報

過去48時間のMETAR

飛行場予報(TAF)
発表時間: 6/19 12:22 EDT (6/19 16:22 UTC)
予報対象時間: 19日12時 EDT ~ 20日14時 EDT
風向・風速北北東 6m/s 瞬間風速 9m/s
視程10km以上
少しの雲 雲底高度 1520m
全天の4割程度の雲 雲底高度 7620m
19日19時 EDT から
風向・風速北北東 4m/s
視程10km以上
少しの雲 雲底高度 1520m
少しの雲 雲底高度 7620m
20日12時 EDT から
風向・風速南東 3m/s
視程10km以上
全天の4割程度の雲 雲底高度 1520m
全天の8割程度の雲 雲底高度 4570m
KJFK 191622Z 1916/2018 02011G17KT P6SM FEW050 SCT250
FM192300 02008KT P6SM FEW050 FEW250
FM201600 14006KT P6SM SCT050 BKN150